Athelstane, Wisconsin
Current Conditions -  °F | °C
As of 12:54 PM on Saturday 20 Dec 2014 (Local Time) from KIMT Reporting Station
Overcast Overcast  
Wind Chill: 26°   Ceiling: 2000
Heat Index: 26°   Visibility: 8mi
Dew Point: 22°   Wind: 3mph
Humidity: 84%   Direction: 150°SSE
Pressure: 30.18"   Gusts: NA
Location:  45.42°N, 88.1°W
Report Text: KIMT 201854Z AUTO 15003KT 8SM OVC020 M03/M06 A3018 RMK AO2 SLP241 T10331056
Loading
Personal Weather Stations






























Interactive Weather Map New forecast layout! Learn more

10-Day Weather Forecast

Advertisements
Track Severe Weather on mobile